createdAt,value
2022-12-18T00:00:47.692Z,28.57
2022-12-18T00:04:49.412Z,28.30
2022-12-18T00:08:51.984Z,26.90
2022-12-18T00:12:53.965Z,31.27
2022-12-18T00:16:55.715Z,28.93
2022-12-18T00:21:01.055Z,34.87
2022-12-18T00:25:03.470Z,31.47
2022-12-18T00:29:14.678Z,37.60
2022-12-18T00:33:16.434Z,33.00
2022-12-18T00:37:20.256Z,31.10
2022-12-18T00:41:45.686Z,37.57
2022-12-18T00:45:47.539Z,28.13
2022-12-18T00:49:49.337Z,30.23
2022-12-18T00:53:51.300Z,28.87
2022-12-18T00:57:53.502Z,25.60
2022-12-18T01:01:55.391Z,28.07
2022-12-18T01:05:57.530Z,28.90
2022-12-18T01:09:59.359Z,30.10
2022-12-18T01:14:01.850Z,32.13
2022-12-18T01:18:06.687Z,27.70
2022-12-18T01:22:08.558Z,23.73
2022-12-18T01:26:13.965Z,24.03
2022-12-18T01:30:15.941Z,24.10
2022-12-18T01:34:17.758Z,26.73
2022-12-18T01:38:19.491Z,25.17
2022-12-18T01:42:21.982Z,26.70
2022-12-18T01:46:25.801Z,26.40
2022-12-18T01:50:36.840Z,30.23
2022-12-18T01:54:38.730Z,29.13
2022-12-18T01:59:14.201Z,28.30
2022-12-18T02:03:16.178Z,26.83
2022-12-18T02:07:42.583Z,26.90
2022-12-18T02:12:03.260Z,26.47
2022-12-18T02:16:23.632Z,27.03
2022-12-18T02:20:42.995Z,26.17
2022-12-18T02:25:03.423Z,24.67
2022-12-18T02:29:32.550Z,25.80
2022-12-18T02:33:37.053Z,27.33
2022-12-18T02:37:41.087Z,27.10
2022-12-18T02:41:43.207Z,27.30
2022-12-18T02:45:58.483Z,25.80
2022-12-18T02:50:31.615Z,24.73
2022-12-18T02:54:33.850Z,25.13
2022-12-18T02:59:10.699Z,25.33
2022-12-18T03:03:31.189Z,24.60
2022-12-18T03:07:42.892Z,25.67
2022-12-18T03:12:12.983Z,27.70
2022-12-18T03:16:23.302Z,26.03
2022-12-18T03:20:29.679Z,26.33
2022-12-18T03:24:34.053Z,26.80
2022-12-18T03:28:40.706Z,26.77
2022-12-18T03:32:58.810Z,28.47
2022-12-18T03:37:04.104Z,26.37
2022-12-18T03:41:16.509Z,27.67
2022-12-18T03:45:43.721Z,26.00
2022-12-18T03:50:01.137Z,28.73
2022-12-18T03:54:09.758Z,27.73
2022-12-18T03:58:20.211Z,26.40
2022-12-18T04:02:34.610Z,28.17
2022-12-18T04:06:39.428Z,26.60
2022-12-18T04:10:42.796Z,27.70
2022-12-18T04:14:45.818Z,27.83
2022-12-18T04:18:48.643Z,25.83
2022-12-18T04:22:50.615Z,27.00
2022-12-18T04:26:53.901Z,29.47
2022-12-18T04:31:03.444Z,27.70
2022-12-18T04:35:07.544Z,27.83
2022-12-18T04:39:10.248Z,26.53
2022-12-18T04:43:12.424Z,28.27
2022-12-18T04:47:14.802Z,28.00
2022-12-18T04:51:16.664Z,28.37
2022-12-18T04:55:18.549Z,27.77
2022-12-18T04:59:20.315Z,28.20
2022-12-18T05:03:22.142Z,29.13
2022-12-18T05:07:23.954Z,29.37
2022-12-18T05:11:25.859Z,30.90
2022-12-18T05:15:31.885Z,30.33
2022-12-18T05:19:33.642Z,29.13
2022-12-18T05:23:35.861Z,25.83
2022-12-18T05:27:37.610Z,28.37
2022-12-18T05:31:40.035Z,26.40
2022-12-18T05:35:41.881Z,26.33
2022-12-18T05:39:45.150Z,27.50
2022-12-18T05:43:46.989Z,29.07
2022-12-18T05:47:48.699Z,30.00
2022-12-18T05:51:50.713Z,28.60
2022-12-18T05:55:52.487Z,29.13
2022-12-18T05:59:54.652Z,27.13
2022-12-18T06:03:56.803Z,28.17
2022-12-18T06:07:58.597Z,28.07
2022-12-18T06:12:00.541Z,25.77
2022-12-18T06:16:06.388Z,24.23
2022-12-18T06:20:08.686Z,23.37
2022-12-18T06:24:10.988Z,23.10
2022-12-18T06:28:12.817Z,23.67
2022-12-18T06:32:14.595Z,24.43
2022-12-18T06:36:17.609Z,21.67
2022-12-18T06:40:19.546Z,23.47
2022-12-18T06:44:21.389Z,22.93
2022-12-18T06:48:23.146Z,21.97
2022-12-18T06:52:24.889Z,23.87
2022-12-18T06:56:26.694Z,21.83
2022-12-18T07:00:28.492Z,24.47
2022-12-18T07:04:31.327Z,23.30
2022-12-18T07:08:33.787Z,23.40
2022-12-18T07:12:35.865Z,22.23
2022-12-18T07:16:37.644Z,22.93
2022-12-18T07:20:39.466Z,21.90
2022-12-18T07:24:41.276Z,21.07
2022-12-18T07:28:43.181Z,22.10
2022-12-18T07:32:45.031Z,22.10
2022-12-18T07:36:46.842Z,20.80
2022-12-18T07:40:48.682Z,22.90
2022-12-18T07:44:50.471Z,23.33
2022-12-18T07:48:52.179Z,21.57
2022-12-18T07:52:53.930Z,23.33
2022-12-18T07:56:55.662Z,20.90
2022-12-18T08:01:05.250Z,22.97
2022-12-18T08:05:08.799Z,21.17
2022-12-18T08:09:11.533Z,21.23
2022-12-18T08:13:13.243Z,22.70
2022-12-18T08:17:15.061Z,21.80
2022-12-18T08:21:17.958Z,21.33
2022-12-18T08:25:19.706Z,20.27
2022-12-18T08:29:21.818Z,21.77
2022-12-18T08:33:23.853Z,20.23
2022-12-18T08:37:26.089Z,21.80
2022-12-18T08:41:27.934Z,26.20
2022-12-18T08:45:29.827Z,23.57
2022-12-18T08:49:31.632Z,22.83
2022-12-18T08:53:35.755Z,24.00
2022-12-18T08:57:37.958Z,22.87
2022-12-18T09:01:39.785Z,24.17
2022-12-18T09:05:41.852Z,23.67
2022-12-18T09:09:43.793Z,23.37
2022-12-18T09:13:45.536Z,24.30
2022-12-18T09:17:47.418Z,22.43
2022-12-18T09:21:49.381Z,22.60
2022-12-18T09:25:51.105Z,22.50
2022-12-18T09:29:52.860Z,22.90
2022-12-18T09:33:56.980Z,21.47
2022-12-18T09:37:58.939Z,23.53
2022-12-18T09:42:00.892Z,20.80
2022-12-18T09:46:07.998Z,20.67
2022-12-18T09:50:32.653Z,22.50
2022-12-18T09:54:39.490Z,21.87
2022-12-18T09:58:56.343Z,22.87
2022-12-18T10:03:10.514Z,22.27
2022-12-18T10:07:30.454Z,21.60
2022-12-18T10:11:59.085Z,21.37
2022-12-18T10:16:14.078Z,21.47
2022-12-18T10:20:29.500Z,20.17
2022-12-18T10:24:49.196Z,22.40
2022-12-18T10:28:52.933Z,24.80
2022-12-18T10:32:55.237Z,24.00
2022-12-18T10:36:57.735Z,23.60
2022-12-18T10:40:59.867Z,22.93
2022-12-18T10:45:16.998Z,22.77
2022-12-18T10:49:28.343Z,22.17
2022-12-18T10:53:32.631Z,23.47
2022-12-18T10:57:39.987Z,23.57
2022-12-18T11:02:00.049Z,25.20
2022-12-18T11:06:16.892Z,25.33
2022-12-18T11:10:20.943Z,24.60
2022-12-18T11:14:35.072Z,23.67
2022-12-18T11:18:37.320Z,23.30
2022-12-18T11:22:41.153Z,23.77
2022-12-18T11:26:44.318Z,24.97
2022-12-18T11:30:46.082Z,24.87
2022-12-18T11:34:56.001Z,24.80
2022-12-18T11:39:13.093Z,25.43
2022-12-18T11:43:22.848Z,23.17
2022-12-18T11:47:48.997Z,23.80
2022-12-18T11:52:10.454Z,27.93
2022-12-18T11:56:27.231Z,29.50
2022-12-18T12:00:29.551Z,28.03
2022-12-18T12:04:49.180Z,25.17
2022-12-18T12:09:10.497Z,24.00
2022-12-18T12:13:43.803Z,26.40
2022-12-18T12:18:11.226Z,26.57
2022-12-18T12:22:32.100Z,28.47
2022-12-18T12:26:43.957Z,25.37
2022-12-18T12:31:04.129Z,25.60
2022-12-18T12:35:32.942Z,23.50
2022-12-18T12:39:41.707Z,26.10
2022-12-18T12:43:51.601Z,30.10
2022-12-18T12:47:55.469Z,27.70
2022-12-18T12:52:30.220Z,27.40
2022-12-18T12:57:00.228Z,27.90
2022-12-18T13:01:24.129Z,29.97
2022-12-18T13:05:55.785Z,29.40
2022-12-18T13:10:26.813Z,29.80
2022-12-18T13:14:38.740Z,27.33
2022-12-18T13:18:51.054Z,27.73
2022-12-18T13:22:53.529Z,26.70
2022-12-18T13:26:55.624Z,27.30
2022-12-18T13:30:58.628Z,27.63
2022-12-18T13:35:18.862Z,25.77
2022-12-18T13:39:30.062Z,27.70
2022-12-18T13:43:43.916Z,29.80
2022-12-18T13:47:46.254Z,25.30
2022-12-18T13:51:51.216Z,25.10
2022-12-18T13:55:54.382Z,27.63
2022-12-18T13:59:58.116Z,25.87
2022-12-18T14:04:20.034Z,25.70
2022-12-18T14:08:22.102Z,26.23
2022-12-18T14:12:46.358Z,26.77
2022-12-18T14:16:50.106Z,26.57
2022-12-18T14:20:54.898Z,25.43
2022-12-18T14:25:16.014Z,28.60
2022-12-18T14:29:20.450Z,24.50
2022-12-18T14:33:27.056Z,26.63
2022-12-18T14:37:28.843Z,33.60
2022-12-18T14:41:30.624Z,33.30
2022-12-18T14:45:43.840Z,24.87
2022-12-18T14:49:46.358Z,24.77
2022-12-18T14:54:01.335Z,23.20
2022-12-18T14:58:03.220Z,25.27
2022-12-18T15:02:17.584Z,26.00
2022-12-18T15:06:32.794Z,23.37
2022-12-18T15:10:35.570Z,26.30
2022-12-18T15:14:41.988Z,24.10
2022-12-18T15:18:46.141Z,22.00
2022-12-18T15:22:48.592Z,24.07
2022-12-18T15:26:50.321Z,25.37
2022-12-18T15:31:06.439Z,24.27
2022-12-18T15:35:23.272Z,22.97
2022-12-18T15:39:25.524Z,26.27
2022-12-18T15:43:37.601Z,25.53
2022-12-18T15:47:39.884Z,24.10
2022-12-18T15:51:41.791Z,25.70
2022-12-18T15:56:02.070Z,24.27
2022-12-18T16:00:04.406Z,32.77
2022-12-18T16:04:06.817Z,28.27
2022-12-18T16:08:08.634Z,26.87
2022-12-18T16:12:21.699Z,24.47
2022-12-18T16:16:23.581Z,23.57
2022-12-18T16:20:26.029Z,23.80
2022-12-18T16:24:30.472Z,24.70
2022-12-18T16:28:32.245Z,23.87
2022-12-18T16:32:34.004Z,22.13
2022-12-18T16:36:35.847Z,24.20
2022-12-18T16:40:59.078Z,23.73
2022-12-18T16:45:00.845Z,22.60
2022-12-18T16:49:02.701Z,23.30
2022-12-18T16:53:04.477Z,24.73
2022-12-18T16:57:06.475Z,38.67
2022-12-18T17:01:11.272Z,24.97
2022-12-18T17:05:13.098Z,23.27
2022-12-18T17:09:17.195Z,24.60
2022-12-18T17:13:22.688Z,23.87
2022-12-18T17:17:27.517Z,24.37
2022-12-18T17:21:29.450Z,25.17
2022-12-18T17:25:31.203Z,22.63
2022-12-18T17:29:33.118Z,25.77
2022-12-18T17:33:35.398Z,22.57
2022-12-18T17:37:37.303Z,29.97
2022-12-18T17:41:39.159Z,27.23
2022-12-18T17:45:41.068Z,23.67
2022-12-18T17:49:42.846Z,22.53
2022-12-18T17:53:45.219Z,25.70
2022-12-18T17:57:47.653Z,23.03
2022-12-18T18:01:49.575Z,22.37
2022-12-18T18:05:58.569Z,22.00
2022-12-18T18:10:00.330Z,22.17
2022-12-18T18:14:05.113Z,24.03
2022-12-18T18:18:06.856Z,24.13
2022-12-18T18:22:08.653Z,23.13
2022-12-18T18:26:10.475Z,23.87
2022-12-18T18:30:12.747Z,22.90
2022-12-18T18:34:23.194Z,23.10
2022-12-18T18:38:25.310Z,41.97
2022-12-18T18:42:27.157Z,28.60
2022-12-18T18:46:29.017Z,29.60
2022-12-18T18:50:30.889Z,29.37
2022-12-18T18:54:32.903Z,29.40
2022-12-18T18:58:34.907Z,25.50
2022-12-18T19:02:37.071Z,24.93
2022-12-18T19:06:42.640Z,24.90
2022-12-18T19:10:45.012Z,26.40
2022-12-18T19:14:47.034Z,25.90
2022-12-18T19:18:49.504Z,27.20
2022-12-18T19:22:56.307Z,24.77
2022-12-18T19:26:58.345Z,25.73
2022-12-18T19:31:02.863Z,25.50
2022-12-18T19:35:05.005Z,24.60
2022-12-18T19:39:12.942Z,25.60
2022-12-18T19:43:15.124Z,23.27
2022-12-18T19:47:17.943Z,25.60
2022-12-18T19:51:23.344Z,25.40
2022-12-18T19:55:25.130Z,24.80
2022-12-18T19:59:27.177Z,26.10
2022-12-18T20:03:32.496Z,27.23
2022-12-18T20:07:34.698Z,25.47
2022-12-18T20:11:41.481Z,26.93
2022-12-18T20:15:45.442Z,25.47
2022-12-18T20:19:47.574Z,26.70
2022-12-18T20:23:49.440Z,26.33
2022-12-18T20:27:51.394Z,27.63
2022-12-18T20:31:53.601Z,33.67
2022-12-18T20:36:05.856Z,37.20
2022-12-18T20:40:08.775Z,38.10
2022-12-18T20:44:23.564Z,33.47
2022-12-18T20:48:26.810Z,28.13
2022-12-18T20:52:28.608Z,30.30
2022-12-18T20:56:33.413Z,34.43
2022-12-18T21:00:35.328Z,34.30
2022-12-18T21:04:37.208Z,34.13
2022-12-18T21:08:39.093Z,31.40
2022-12-18T21:13:03.152Z,29.60
2022-12-18T21:17:06.607Z,30.13
2022-12-18T21:21:08.486Z,28.83
2022-12-18T21:25:10.476Z,28.90
2022-12-18T21:29:15.087Z,27.97
2022-12-18T21:33:17.126Z,37.47
2022-12-18T21:37:18.932Z,28.53
2022-12-18T21:41:42.305Z,27.73
2022-12-18T21:45:44.467Z,26.73
2022-12-18T21:49:46.338Z,28.20
2022-12-18T21:53:48.619Z,27.63
2022-12-18T21:57:53.950Z,29.00
2022-12-18T22:01:58.318Z,26.13
2022-12-18T22:06:09.018Z,29.23
2022-12-18T22:10:11.504Z,29.47
2022-12-18T22:14:14.754Z,30.63
2022-12-18T22:18:16.457Z,28.20
2022-12-18T22:22:18.220Z,28.83
2022-12-18T22:26:21.305Z,28.47
2022-12-18T22:30:23.028Z,29.67
2022-12-18T22:34:24.761Z,29.30
2022-12-18T22:38:26.504Z,29.40
2022-12-18T22:42:28.355Z,28.37
2022-12-18T22:46:33.337Z,29.37
2022-12-18T22:50:35.209Z,29.57
2022-12-18T22:54:37.055Z,29.20
2022-12-18T22:58:38.900Z,29.10
2022-12-18T23:02:40.873Z,33.20
2022-12-18T23:06:44.263Z,29.60
2022-12-18T23:10:46.188Z,29.73
2022-12-18T23:14:47.934Z,30.77
2022-12-18T23:18:54.904Z,31.37
2022-12-18T23:22:56.778Z,31.90
2022-12-18T23:26:58.496Z,30.10
2022-12-18T23:31:21.475Z,30.63
2022-12-18T23:35:23.375Z,28.47
2022-12-18T23:39:29.808Z,30.90
2022-12-18T23:43:32.037Z,31.97
2022-12-18T23:47:33.776Z,35.17
2022-12-18T23:51:38.590Z,32.70
2022-12-18T23:55:44.048Z,33.23
2022-12-18T23:59:45.812Z,33.73
